sensor_id;sensor_type;location;lat;lon;timestamp;P1;durP1;ratioP1;P2;durP2;ratioP2
9918;SDS011;4998;51.024;13.828;2024-03-08T00:00:00;15.47;;;12.60;;
9918;SDS011;4998;51.024;13.828;2024-03-08T00:02:35;19.03;;;13.87;;
9918;SDS011;4998;51.024;13.828;2024-03-08T00:05:03;19.40;;;14.47;;
9918;SDS011;4998;51.024;13.828;2024-03-08T00:07:31;18.87;;;13.70;;
9918;SDS011;4998;51.024;13.828;2024-03-08T00:09:58;21.03;;;13.90;;
9918;SDS011;4998;51.024;13.828;2024-03-08T00:12:26;17.77;;;13.90;;
9918;SDS011;4998;51.024;13.828;2024-03-08T00:14:53;15.53;;;12.47;;
9918;SDS011;4998;51.024;13.828;2024-03-08T00:17:20;17.83;;;13.70;;
9918;SDS011;4998;51.024;13.828;2024-03-08T00:19:48;19.67;;;14.13;;
9918;SDS011;4998;51.024;13.828;2024-03-08T00:22:15;17.57;;;13.33;;
9918;SDS011;4998;51.024;13.828;2024-03-08T00:24:42;18.53;;;13.90;;
9918;SDS011;4998;51.024;13.828;2024-03-08T00:27:09;21.30;;;13.60;;
9918;SDS011;4998;51.024;13.828;2024-03-08T00:29:39;17.27;;;12.63;;
9918;SDS011;4998;51.024;13.828;2024-03-08T00:32:06;19.47;;;13.90;;
9918;SDS011;4998;51.024;13.828;2024-03-08T00:34:35;24.00;;;13.03;;
9918;SDS011;4998;51.024;13.828;2024-03-08T00:37:03;19.03;;;13.20;;
9918;SDS011;4998;51.024;13.828;2024-03-08T00:39:30;18.50;;;14.17;;
9918;SDS011;4998;51.024;13.828;2024-03-08T00:41:57;19.77;;;13.57;;
9918;SDS011;4998;51.024;13.828;2024-03-08T00:44:25;17.80;;;13.50;;
9918;SDS011;4998;51.024;13.828;2024-03-08T00:46:53;22.30;;;13.87;;
9918;SDS011;4998;51.024;13.828;2024-03-08T00:49:20;20.50;;;13.40;;
9918;SDS011;4998;51.024;13.828;2024-03-08T00:51:48;17.37;;;12.70;;
9918;SDS011;4998;51.024;13.828;2024-03-08T00:54:15;18.73;;;13.53;;
9918;SDS011;4998;51.024;13.828;2024-03-08T00:56:42;17.50;;;12.83;;
9918;SDS011;4998;51.024;13.828;2024-03-08T00:59:11;17.57;;;13.10;;
9918;SDS011;4998;51.024;13.828;2024-03-08T01:01:39;20.83;;;13.73;;
9918;SDS011;4998;51.024;13.828;2024-03-08T01:04:08;17.83;;;13.17;;
9918;SDS011;4998;51.024;13.828;2024-03-08T01:06:35;17.30;;;12.37;;
9918;SDS011;4998;51.024;13.828;2024-03-08T01:09:02;17.30;;;13.90;;
9918;SDS011;4998;51.024;13.828;2024-03-08T01:11:32;17.10;;;12.60;;
9918;SDS011;4998;51.024;13.828;2024-03-08T01:13:59;18.40;;;12.80;;
9918;SDS011;4998;51.024;13.828;2024-03-08T01:16:26;18.40;;;13.20;;
9918;SDS011;4998;51.024;13.828;2024-03-08T01:18:53;20.30;;;14.03;;
9918;SDS011;4998;51.024;13.828;2024-03-08T01:21:22;18.40;;;13.57;;
9918;SDS011;4998;51.024;13.828;2024-03-08T01:23:49;19.07;;;13.43;;
9918;SDS011;4998;51.024;13.828;2024-03-08T01:26:16;18.47;;;13.33;;
9918;SDS011;4998;51.024;13.828;2024-03-08T01:28:43;18.30;;;13.40;;
9918;SDS011;4998;51.024;13.828;2024-03-08T01:31:10;18.43;;;13.50;;
9918;SDS011;4998;51.024;13.828;2024-03-08T01:33:38;17.13;;;12.30;;
9918;SDS011;4998;51.024;13.828;2024-03-08T01:36:06;18.70;;;13.37;;
9918;SDS011;4998;51.024;13.828;2024-03-08T01:38:34;19.60;;;13.70;;
9918;SDS011;4998;51.024;13.828;2024-03-08T01:41:02;17.90;;;13.40;;
9918;SDS011;4998;51.024;13.828;2024-03-08T01:43:29;17.63;;;12.80;;
9918;SDS011;4998;51.024;13.828;2024-03-08T01:45:56;19.70;;;13.60;;
9918;SDS011;4998;51.024;13.828;2024-03-08T01:48:25;18.10;;;12.70;;
9918;SDS011;4998;51.024;13.828;2024-03-08T01:50:52;18.83;;;13.50;;
9918;SDS011;4998;51.024;13.828;2024-03-08T01:53:21;18.57;;;13.27;;
9918;SDS011;4998;51.024;13.828;2024-03-08T01:55:50;16.90;;;12.67;;
9918;SDS011;4998;51.024;13.828;2024-03-08T01:58:22;16.33;;;12.13;;
9918;SDS011;4998;51.024;13.828;2024-03-08T02:00:49;17.07;;;13.10;;
9918;SDS011;4998;51.024;13.828;2024-03-08T02:03:18;15.23;;;12.00;;
9918;SDS011;4998;51.024;13.828;2024-03-08T02:05:46;17.77;;;12.80;;
9918;SDS011;4998;51.024;13.828;2024-03-08T02:08:13;19.40;;;13.10;;
9918;SDS011;4998;51.024;13.828;2024-03-08T02:10:40;20.00;;;14.77;;
9918;SDS011;4998;51.024;13.828;2024-03-08T02:13:09;17.10;;;13.20;;
9918;SDS011;4998;51.024;13.828;2024-03-08T02:15:53;21.03;;;14.47;;
9918;SDS011;4998;51.024;13.828;2024-03-08T02:18:20;21.20;;;13.17;;
9918;SDS011;4998;51.024;13.828;2024-03-08T02:20:50;19.83;;;13.30;;
9918;SDS011;4998;51.024;13.828;2024-03-08T02:23:17;18.30;;;12.57;;
9918;SDS011;4998;51.024;13.828;2024-03-08T02:25:44;20.03;;;13.97;;
9918;SDS011;4998;51.024;13.828;2024-03-08T02:28:12;20.70;;;13.03;;
9918;SDS011;4998;51.024;13.828;2024-03-08T02:30:40;19.37;;;13.30;;
9918;SDS011;4998;51.024;13.828;2024-03-08T02:33:07;17.40;;;13.10;;
9918;SDS011;4998;51.024;13.828;2024-03-08T02:35:35;18.47;;;13.00;;
9918;SDS011;4998;51.024;13.828;2024-03-08T02:38:04;16.67;;;12.00;;
9918;SDS011;4998;51.024;13.828;2024-03-08T02:40:31;16.83;;;12.27;;
9918;SDS011;4998;51.024;13.828;2024-03-08T02:42:58;21.20;;;12.30;;
9918;SDS011;4998;51.024;13.828;2024-03-08T02:45:25;19.57;;;13.73;;
9918;SDS011;4998;51.024;13.828;2024-03-08T02:47:52;17.10;;;13.07;;
9918;SDS011;4998;51.024;13.828;2024-03-08T02:50:19;18.67;;;12.90;;
9918;SDS011;4998;51.024;13.828;2024-03-08T02:52:47;16.47;;;12.70;;
9918;SDS011;4998;51.024;13.828;2024-03-08T02:55:17;19.33;;;12.93;;
9918;SDS011;4998;51.024;13.828;2024-03-08T02:57:45;17.90;;;12.23;;
9918;SDS011;4998;51.024;13.828;2024-03-08T03:00:12;16.73;;;12.50;;
9918;SDS011;4998;51.024;13.828;2024-03-08T03:02:41;19.97;;;13.10;;
9918;SDS011;4998;51.024;13.828;2024-03-08T03:05:08;23.20;;;13.20;;
9918;SDS011;4998;51.024;13.828;2024-03-08T03:07:37;17.20;;;12.70;;
9918;SDS011;4998;51.024;13.828;2024-03-08T03:10:04;16.20;;;12.40;;
9918;SDS011;4998;51.024;13.828;2024-03-08T03:12:35;17.30;;;12.13;;
9918;SDS011;4998;51.024;13.828;2024-03-08T03:15:03;18.47;;;12.67;;
9918;SDS011;4998;51.024;13.828;2024-03-08T03:17:31;16.60;;;13.10;;
9918;SDS011;4998;51.024;13.828;2024-03-08T03:19:59;17.00;;;12.73;;
9918;SDS011;4998;51.024;13.828;2024-03-08T03:22:29;17.30;;;12.20;;
9918;SDS011;4998;51.024;13.828;2024-03-08T03:24:56;16.90;;;12.20;;
9918;SDS011;4998;51.024;13.828;2024-03-08T03:27:26;17.23;;;12.80;;
9918;SDS011;4998;51.024;13.828;2024-03-08T03:29:54;19.50;;;12.97;;
9918;SDS011;4998;51.024;13.828;2024-03-08T03:32:23;17.43;;;12.73;;
9918;SDS011;4998;51.024;13.828;2024-03-08T03:34:50;16.67;;;12.63;;
9918;SDS011;4998;51.024;13.828;2024-03-08T03:37:18;17.73;;;13.10;;
9918;SDS011;4998;51.024;13.828;2024-03-08T03:39:45;15.87;;;12.17;;
9918;SDS011;4998;51.024;13.828;2024-03-08T03:42:14;17.53;;;12.37;;
9918;SDS011;4998;51.024;13.828;2024-03-08T03:44:43;17.87;;;13.90;;
9918;SDS011;4998;51.024;13.828;2024-03-08T03:47:12;16.33;;;11.90;;
9918;SDS011;4998;51.024;13.828;2024-03-08T03:49:39;19.50;;;12.30;;
9918;SDS011;4998;51.024;13.828;2024-03-08T03:52:07;20.43;;;13.40;;
9918;SDS011;4998;51.024;13.828;2024-03-08T03:54:34;16.80;;;12.37;;
9918;SDS011;4998;51.024;13.828;2024-03-08T03:57:01;19.57;;;13.30;;
9918;SDS011;4998;51.024;13.828;2024-03-08T03:59:28;17.10;;;12.03;;
9918;SDS011;4998;51.024;13.828;2024-03-08T04:01:55;18.97;;;12.90;;
9918;SDS011;4998;51.024;13.828;2024-03-08T04:04:23;16.77;;;12.10;;
9918;SDS011;4998;51.024;13.828;2024-03-08T04:06:50;16.53;;;12.70;;
9918;SDS011;4998;51.024;13.828;2024-03-08T04:09:17;17.97;;;13.10;;
9918;SDS011;4998;51.024;13.828;2024-03-08T04:11:47;17.53;;;12.80;;
9918;SDS011;4998;51.024;13.828;2024-03-08T04:14:15;17.33;;;12.57;;
9918;SDS011;4998;51.024;13.828;2024-03-08T04:16:42;17.03;;;13.30;;
9918;SDS011;4998;51.024;13.828;2024-03-08T04:19:09;21.17;;;13.30;;
9918;SDS011;4998;51.024;13.828;2024-03-08T04:21:37;17.10;;;11.80;;
9918;SDS011;4998;51.024;13.828;2024-03-08T04:24:04;16.93;;;12.50;;
9918;SDS011;4998;51.024;13.828;2024-03-08T04:26:32;19.63;;;13.13;;
9918;SDS011;4998;51.024;13.828;2024-03-08T04:28:59;19.70;;;12.97;;
9918;SDS011;4998;51.024;13.828;2024-03-08T04:31:26;15.90;;;12.03;;
9918;SDS011;4998;51.024;13.828;2024-03-08T04:33:54;15.70;;;11.67;;
9918;SDS011;4998;51.024;13.828;2024-03-08T04:36:21;17.27;;;12.50;;
9918;SDS011;4998;51.024;13.828;2024-03-08T04:38:51;16.93;;;12.60;;
9918;SDS011;4998;51.024;13.828;2024-03-08T04:41:18;16.07;;;12.20;;
9918;SDS011;4998;51.024;13.828;2024-03-08T04:43:46;19.07;;;12.20;;
9918;SDS011;4998;51.024;13.828;2024-03-08T04:46:13;17.87;;;12.93;;
9918;SDS011;4998;51.024;13.828;2024-03-08T04:48:41;18.83;;;12.10;;
9918;SDS011;4998;51.024;13.828;2024-03-08T04:51:08;16.70;;;12.10;;
9918;SDS011;4998;51.024;13.828;2024-03-08T04:53:36;17.23;;;12.83;;
9918;SDS011;4998;51.024;13.828;2024-03-08T04:56:05;18.23;;;12.20;;
9918;SDS011;4998;51.024;13.828;2024-03-08T04:58:32;16.80;;;12.47;;
9918;SDS011;4998;51.024;13.828;2024-03-08T05:01:01;19.80;;;13.40;;
9918;SDS011;4998;51.024;13.828;2024-03-08T05:03:29;17.70;;;12.90;;
9918;SDS011;4998;51.024;13.828;2024-03-08T05:05:56;18.87;;;12.87;;
9918;SDS011;4998;51.024;13.828;2024-03-08T05:08:23;16.80;;;12.50;;
9918;SDS011;4998;51.024;13.828;2024-03-08T05:10:51;17.20;;;12.23;;
9918;SDS011;4998;51.024;13.828;2024-03-08T05:13:19;18.07;;;12.50;;
9918;SDS011;4998;51.024;13.828;2024-03-08T05:15:47;18.33;;;12.43;;
9918;SDS011;4998;51.024;13.828;2024-03-08T05:18:15;18.87;;;11.90;;
9918;SDS011;4998;51.024;13.828;2024-03-08T05:20:42;17.27;;;13.10;;
9918;SDS011;4998;51.024;13.828;2024-03-08T05:23:09;18.53;;;12.83;;
9918;SDS011;4998;51.024;13.828;2024-03-08T05:25:37;18.63;;;13.67;;
9918;SDS011;4998;51.024;13.828;2024-03-08T05:28:04;21.60;;;13.03;;
9918;SDS011;4998;51.024;13.828;2024-03-08T05:30:33;18.87;;;13.10;;
9918;SDS011;4998;51.024;13.828;2024-03-08T05:33:01;16.70;;;11.90;;
9918;SDS011;4998;51.024;13.828;2024-03-08T05:35:29;16.97;;;12.47;;
9918;SDS011;4998;51.024;13.828;2024-03-08T05:37:56;19.17;;;13.00;;
9918;SDS011;4998;51.024;13.828;2024-03-08T05:40:23;19.87;;;13.23;;
9918;SDS011;4998;51.024;13.828;2024-03-08T05:42:50;20.70;;;13.57;;
9918;SDS011;4998;51.024;13.828;2024-03-08T05:45:18;18.57;;;12.93;;
9918;SDS011;4998;51.024;13.828;2024-03-08T05:47:46;18.93;;;14.20;;
9918;SDS011;4998;51.024;13.828;2024-03-08T05:50:14;19.20;;;13.47;;
9918;SDS011;4998;51.024;13.828;2024-03-08T05:52:41;22.50;;;14.10;;
9918;SDS011;4998;51.024;13.828;2024-03-08T05:55:08;18.77;;;13.20;;
9918;SDS011;4998;51.024;13.828;2024-03-08T05:57:35;19.73;;;13.60;;
9918;SDS011;4998;51.024;13.828;2024-03-08T06:00:05;20.77;;;14.43;;
9918;SDS011;4998;51.024;13.828;2024-03-08T06:02:33;17.50;;;12.70;;
9918;SDS011;4998;51.024;13.828;2024-03-08T06:05:05;20.87;;;13.30;;
9918;SDS011;4998;51.024;13.828;2024-03-08T06:07:34;20.37;;;13.07;;
9918;SDS011;4998;51.024;13.828;2024-03-08T06:10:02;21.10;;;13.97;;
9918;SDS011;4998;51.024;13.828;2024-03-08T06:12:29;17.43;;;12.93;;
9918;SDS011;4998;51.024;13.828;2024-03-08T06:14:58;19.17;;;12.97;;
9918;SDS011;4998;51.024;13.828;2024-03-08T06:17:26;19.20;;;13.57;;
9918;SDS011;4998;51.024;13.828;2024-03-08T06:19:53;20.43;;;12.80;;
9918;SDS011;4998;51.024;13.828;2024-03-08T06:22:22;18.47;;;13.70;;
9918;SDS011;4998;51.024;13.828;2024-03-08T06:24:49;18.10;;;13.50;;
9918;SDS011;4998;51.024;13.828;2024-03-08T06:27:16;18.13;;;12.87;;
9918;SDS011;4998;51.024;13.828;2024-03-08T06:29:43;20.30;;;14.13;;
9918;SDS011;4998;51.024;13.828;2024-03-08T06:32:11;17.97;;;12.63;;
9918;SDS011;4998;51.024;13.828;2024-03-08T06:34:40;19.70;;;13.57;;
9918;SDS011;4998;51.024;13.828;2024-03-08T06:37:07;18.20;;;12.90;;
9918;SDS011;4998;51.024;13.828;2024-03-08T06:39:36;20.53;;;13.63;;
9918;SDS011;4998;51.024;13.828;2024-03-08T06:42:03;19.50;;;12.83;;
9918;SDS011;4998;51.024;13.828;2024-03-08T06:44:31;22.57;;;15.07;;
9918;SDS011;4998;51.024;13.828;2024-03-08T06:46:58;31.40;;;21.57;;
9918;SDS011;4998;51.024;13.828;2024-03-08T06:49:25;43.70;;;27.90;;
9918;SDS011;4998;51.024;13.828;2024-03-08T06:51:52;32.23;;;21.80;;
9918;SDS011;4998;51.024;13.828;2024-03-08T06:54:19;28.30;;;18.47;;
9918;SDS011;4998;51.024;13.828;2024-03-08T06:56:47;23.17;;;16.27;;
9918;SDS011;4998;51.024;13.828;2024-03-08T06:59:15;23.40;;;15.23;;
9918;SDS011;4998;51.024;13.828;2024-03-08T07:01:43;22.37;;;14.47;;
9918;SDS011;4998;51.024;13.828;2024-03-08T07:04:11;21.10;;;14.17;;
9918;SDS011;4998;51.024;13.828;2024-03-08T07:06:38;22.80;;;14.60;;
9918;SDS011;4998;51.024;13.828;2024-03-08T07:09:06;21.67;;;15.50;;
9918;SDS011;4998;51.024;13.828;2024-03-08T07:11:33;23.10;;;16.17;;
9918;SDS011;4998;51.024;13.828;2024-03-08T07:14:03;24.57;;;14.07;;
9918;SDS011;4998;51.024;13.828;2024-03-08T07:16:31;21.63;;;15.00;;
9918;SDS011;4998;51.024;13.828;2024-03-08T07:18:59;21.00;;;14.90;;
9918;SDS011;4998;51.024;13.828;2024-03-08T07:21:26;22.87;;;16.10;;
9918;SDS011;4998;51.024;13.828;2024-03-08T07:23:53;32.50;;;21.60;;
9918;SDS011;4998;51.024;13.828;2024-03-08T07:26:34;27.20;;;18.40;;
9918;SDS011;4998;51.024;13.828;2024-03-08T07:29:04;26.07;;;17.67;;
9918;SDS011;4998;51.024;13.828;2024-03-08T07:31:33;24.10;;;16.70;;
9918;SDS011;4998;51.024;13.828;2024-03-08T07:34:10;21.90;;;15.70;;
9918;SDS011;4998;51.024;13.828;2024-03-08T07:36:37;22.93;;;16.10;;
9918;SDS011;4998;51.024;13.828;2024-03-08T07:39:04;27.67;;;16.30;;
9918;SDS011;4998;51.024;13.828;2024-03-08T07:41:36;21.97;;;15.10;;
9918;SDS011;4998;51.024;13.828;2024-03-08T07:44:06;20.17;;;15.27;;
9918;SDS011;4998;51.024;13.828;2024-03-08T07:46:34;18.40;;;13.83;;
9918;SDS011;4998;51.024;13.828;2024-03-08T07:49:02;20.43;;;14.40;;
9918;SDS011;4998;51.024;13.828;2024-03-08T07:51:29;20.23;;;14.87;;
9918;SDS011;4998;51.024;13.828;2024-03-08T07:53:56;22.80;;;14.60;;
9918;SDS011;4998;51.024;13.828;2024-03-08T07:56:24;25.50;;;16.47;;
9918;SDS011;4998;51.024;13.828;2024-03-08T07:58:51;24.03;;;16.30;;
9918;SDS011;4998;51.024;13.828;2024-03-08T08:01:20;21.40;;;15.90;;
9918;SDS011;4998;51.024;13.828;2024-03-08T08:03:47;19.60;;;14.70;;
9918;SDS011;4998;51.024;13.828;2024-03-08T08:06:15;23.10;;;15.53;;
9918;SDS011;4998;51.024;13.828;2024-03-08T08:08:42;19.73;;;15.30;;
9918;SDS011;4998;51.024;13.828;2024-03-08T08:11:09;19.53;;;15.23;;
9918;SDS011;4998;51.024;13.828;2024-03-08T08:13:37;22.13;;;16.60;;
9918;SDS011;4998;51.024;13.828;2024-03-08T08:16:05;21.53;;;15.73;;
9918;SDS011;4998;51.024;13.828;2024-03-08T08:18:34;22.10;;;15.27;;
9918;SDS011;4998;51.024;13.828;2024-03-08T08:21:01;23.00;;;15.63;;
9918;SDS011;4998;51.024;13.828;2024-03-08T08:23:31;20.97;;;15.10;;
9918;SDS011;4998;51.024;13.828;2024-03-08T08:25:58;22.10;;;15.50;;
9918;SDS011;4998;51.024;13.828;2024-03-08T08:28:26;20.20;;;14.60;;
9918;SDS011;4998;51.024;13.828;2024-03-08T08:30:53;19.50;;;14.27;;
9918;SDS011;4998;51.024;13.828;2024-03-08T08:33:20;20.30;;;14.50;;
9918;SDS011;4998;51.024;13.828;2024-03-08T08:35:49;21.00;;;15.43;;
9918;SDS011;4998;51.024;13.828;2024-03-08T08:38:19;19.83;;;14.90;;
9918;SDS011;4998;51.024;13.828;2024-03-08T08:40:46;24.40;;;16.13;;
9918;SDS011;4998;51.024;13.828;2024-03-08T08:43:15;17.57;;;13.37;;
9918;SDS011;4998;51.024;13.828;2024-03-08T08:45:42;19.20;;;13.70;;
9918;SDS011;4998;51.024;13.828;2024-03-08T08:48:12;19.77;;;14.30;;
9918;SDS011;4998;51.024;13.828;2024-03-08T08:50:39;21.00;;;14.87;;
9918;SDS011;4998;51.024;13.828;2024-03-08T08:53:08;21.43;;;15.43;;
9918;SDS011;4998;51.024;13.828;2024-03-08T08:55:35;24.40;;;15.67;;
9918;SDS011;4998;51.024;13.828;2024-03-08T08:58:03;22.67;;;15.33;;
9918;SDS011;4998;51.024;13.828;2024-03-08T09:00:32;20.27;;;15.20;;
9918;SDS011;4998;51.024;13.828;2024-03-08T09:02:59;17.77;;;13.63;;
9918;SDS011;4998;51.024;13.828;2024-03-08T09:05:27;24.43;;;14.30;;
9918;SDS011;4998;51.024;13.828;2024-03-08T09:07:54;19.37;;;13.73;;
9918;SDS011;4998;51.024;13.828;2024-03-08T09:10:23;18.90;;;14.73;;
9918;SDS011;4998;51.024;13.828;2024-03-08T09:12:50;17.47;;;13.43;;
9918;SDS011;4998;51.024;13.828;2024-03-08T09:15:18;19.93;;;14.70;;
9918;SDS011;4998;51.024;13.828;2024-03-08T09:17:45;19.67;;;13.70;;
9918;SDS011;4998;51.024;13.828;2024-03-08T09:20:13;16.63;;;12.87;;
9918;SDS011;4998;51.024;13.828;2024-03-08T09:22:40;17.00;;;12.70;;
9918;SDS011;4998;51.024;13.828;2024-03-08T09:25:10;19.97;;;13.60;;
9918;SDS011;4998;51.024;13.828;2024-03-08T09:27:38;18.97;;;14.13;;
9918;SDS011;4998;51.024;13.828;2024-03-08T09:30:06;20.37;;;14.80;;
9918;SDS011;4998;51.024;13.828;2024-03-08T09:32:34;19.63;;;15.00;;
9918;SDS011;4998;51.024;13.828;2024-03-08T09:35:02;21.23;;;14.63;;
9918;SDS011;4998;51.024;13.828;2024-03-08T09:37:32;20.07;;;13.90;;
9918;SDS011;4998;51.024;13.828;2024-03-08T09:40:00;24.80;;;15.47;;
9918;SDS011;4998;51.024;13.828;2024-03-08T09:42:29;19.60;;;14.10;;
9918;SDS011;4998;51.024;13.828;2024-03-08T09:44:59;21.13;;;14.80;;
9918;SDS011;4998;51.024;13.828;2024-03-08T09:47:26;19.30;;;14.07;;
9918;SDS011;4998;51.024;13.828;2024-03-08T09:49:59;19.23;;;14.17;;
9918;SDS011;4998;51.024;13.828;2024-03-08T09:52:26;21.93;;;14.73;;
9918;SDS011;4998;51.024;13.828;2024-03-08T09:54:56;18.23;;;13.67;;
9918;SDS011;4998;51.024;13.828;2024-03-08T09:57:23;18.37;;;13.40;;
9918;SDS011;4998;51.024;13.828;2024-03-08T09:59:51;17.60;;;13.47;;
9918;SDS011;4998;51.024;13.828;2024-03-08T10:02:19;17.73;;;13.10;;
9918;SDS011;4998;51.024;13.828;2024-03-08T10:04:46;19.73;;;14.47;;
9918;SDS011;4998;51.024;13.828;2024-03-08T10:07:14;18.70;;;13.73;;
9918;SDS011;4998;51.024;13.828;2024-03-08T10:09:41;18.03;;;14.07;;
9918;SDS011;4998;51.024;13.828;2024-03-08T10:12:12;18.87;;;14.00;;
9918;SDS011;4998;51.024;13.828;2024-03-08T10:14:40;16.90;;;13.07;;
9918;SDS011;4998;51.024;13.828;2024-03-08T10:17:08;17.87;;;14.07;;
9918;SDS011;4998;51.024;13.828;2024-03-08T10:19:37;19.40;;;13.23;;
9918;SDS011;4998;51.024;13.828;2024-03-08T10:22:04;22.13;;;14.47;;
9918;SDS011;4998;51.024;13.828;2024-03-08T10:24:31;21.83;;;14.20;;
9918;SDS011;4998;51.024;13.828;2024-03-08T10:27:00;19.13;;;14.83;;
9918;SDS011;4998;51.024;13.828;2024-03-08T10:29:30;19.80;;;14.90;;
9918;SDS011;4998;51.024;13.828;2024-03-08T10:31:57;18.40;;;13.70;;
9918;SDS011;4998;51.024;13.828;2024-03-08T10:34:25;19.43;;;14.60;;
9918;SDS011;4998;51.024;13.828;2024-03-08T10:36:53;19.07;;;14.00;;
9918;SDS011;4998;51.024;13.828;2024-03-08T10:39:25;17.30;;;13.70;;
9918;SDS011;4998;51.024;13.828;2024-03-08T10:41:58;21.30;;;14.40;;
9918;SDS011;4998;51.024;13.828;2024-03-08T10:44:40;18.17;;;12.97;;
9918;SDS011;4998;51.024;13.828;2024-03-08T10:47:18;17.60;;;13.80;;
9918;SDS011;4998;51.024;13.828;2024-03-08T10:49:54;17.40;;;13.93;;
9918;SDS011;4998;51.024;13.828;2024-03-08T10:52:30;19.10;;;14.30;;
9918;SDS011;4998;51.024;13.828;2024-03-08T10:54:57;16.17;;;13.57;;
9918;SDS011;4998;51.024;13.828;2024-03-08T10:57:26;19.67;;;14.03;;
9918;SDS011;4998;51.024;13.828;2024-03-08T10:59:53;18.80;;;14.30;;
9918;SDS011;4998;51.024;13.828;2024-03-08T11:02:23;18.90;;;12.87;;
9918;SDS011;4998;51.024;13.828;2024-03-08T11:04:53;16.40;;;13.17;;
9918;SDS011;4998;51.024;13.828;2024-03-08T11:07:21;16.20;;;13.17;;
9918;SDS011;4998;51.024;13.828;2024-03-08T11:09:50;17.30;;;13.20;;
9918;SDS011;4998;51.024;13.828;2024-03-08T11:12:20;20.67;;;13.73;;
9918;SDS011;4998;51.024;13.828;2024-03-08T11:14:50;19.97;;;14.27;;
9918;SDS011;4998;51.024;13.828;2024-03-08T11:17:21;18.77;;;13.90;;
9918;SDS011;4998;51.024;13.828;2024-03-08T11:19:54;15.77;;;12.80;;
9918;SDS011;4998;51.024;13.828;2024-03-08T11:22:26;16.00;;;12.20;;
9918;SDS011;4998;51.024;13.828;2024-03-08T11:24:59;15.90;;;12.30;;
9918;SDS011;4998;51.024;13.828;2024-03-08T11:27:33;15.93;;;12.20;;
9918;SDS011;4998;51.024;13.828;2024-03-08T11:30:02;17.70;;;13.13;;
9918;SDS011;4998;51.024;13.828;2024-03-08T11:32:36;17.93;;;13.97;;
9918;SDS011;4998;51.024;13.828;2024-03-08T11:35:05;15.77;;;12.00;;
9918;SDS011;4998;51.024;13.828;2024-03-08T11:37:35;14.73;;;12.57;;
9918;SDS011;4998;51.024;13.828;2024-03-08T11:40:11;16.90;;;12.50;;
9918;SDS011;4998;51.024;13.828;2024-03-08T11:42:44;14.43;;;11.30;;
9918;SDS011;4998;51.024;13.828;2024-03-08T11:45:13;13.17;;;10.67;;
9918;SDS011;4998;51.024;13.828;2024-03-08T11:47:41;14.70;;;11.17;;
9918;SDS011;4998;51.024;13.828;2024-03-08T11:50:11;14.43;;;11.67;;
9918;SDS011;4998;51.024;13.828;2024-03-08T11:52:39;14.80;;;10.67;;
9918;SDS011;4998;51.024;13.828;2024-03-08T11:55:07;14.17;;;10.60;;
9918;SDS011;4998;51.024;13.828;2024-03-08T11:57:35;13.27;;;10.00;;
9918;SDS011;4998;51.024;13.828;2024-03-08T12:00:03;13.13;;;10.40;;
9918;SDS011;4998;51.024;13.828;2024-03-08T12:02:32;13.93;;;10.87;;
9918;SDS011;4998;51.024;13.828;2024-03-08T12:05:03;13.40;;;9.67;;
9918;SDS011;4998;51.024;13.828;2024-03-08T12:07:34;10.93;;;9.60;;
9918;SDS011;4998;51.024;13.828;2024-03-08T12:10:16;12.30;;;9.70;;
9918;SDS011;4998;51.024;13.828;2024-03-08T12:12:44;11.97;;;9.67;;
9918;SDS011;4998;51.024;13.828;2024-03-08T12:15:13;12.47;;;9.70;;
9918;SDS011;4998;51.024;13.828;2024-03-08T12:17:41;11.20;;;9.20;;
9918;SDS011;4998;51.024;13.828;2024-03-08T12:20:11;10.63;;;9.40;;
9918;SDS011;4998;51.024;13.828;2024-03-08T12:22:40;11.57;;;9.63;;
9918;SDS011;4998;51.024;13.828;2024-03-08T12:25:08;11.97;;;9.80;;
9918;SDS011;4998;51.024;13.828;2024-03-08T12:27:38;13.43;;;10.10;;
9918;SDS011;4998;51.024;13.828;2024-03-08T12:30:19;13.27;;;9.80;;
9918;SDS011;4998;51.024;13.828;2024-03-08T12:32:48;10.87;;;9.53;;
9918;SDS011;4998;51.024;13.828;2024-03-08T12:35:19;12.80;;;10.20;;
9918;SDS011;4998;51.024;13.828;2024-03-08T12:37:48;14.83;;;10.80;;
9918;SDS011;4998;51.024;13.828;2024-03-08T12:40:18;13.13;;;10.63;;
9918;SDS011;4998;51.024;13.828;2024-03-08T12:42:47;14.43;;;10.70;;
9918;SDS011;4998;51.024;13.828;2024-03-08T12:45:14;13.53;;;10.70;;
9918;SDS011;4998;51.024;13.828;2024-03-08T12:47:41;11.70;;;9.40;;
9918;SDS011;4998;51.024;13.828;2024-03-08T12:50:09;12.20;;;9.83;;
9918;SDS011;4998;51.024;13.828;2024-03-08T12:52:37;12.27;;;9.73;;
9918;SDS011;4998;51.024;13.828;2024-03-08T12:55:04;11.50;;;9.77;;
9918;SDS011;4998;51.024;13.828;2024-03-08T12:57:33;12.37;;;9.57;;
9918;SDS011;4998;51.024;13.828;2024-03-08T13:00:02;12.90;;;10.37;;
9918;SDS011;4998;51.024;13.828;2024-03-08T13:02:31;15.07;;;11.10;;
9918;SDS011;4998;51.024;13.828;2024-03-08T13:04:58;13.03;;;10.60;;
9918;SDS011;4998;51.024;13.828;2024-03-08T13:07:26;11.63;;;9.90;;
9918;SDS011;4998;51.024;13.828;2024-03-08T13:09:53;11.73;;;9.60;;
9918;SDS011;4998;51.024;13.828;2024-03-08T13:12:22;13.43;;;10.40;;
9918;SDS011;4998;51.024;13.828;2024-03-08T13:14:49;15.53;;;11.37;;
9918;SDS011;4998;51.024;13.828;2024-03-08T13:17:18;14.07;;;10.43;;
9918;SDS011;4998;51.024;13.828;2024-03-08T13:19:45;16.63;;;10.17;;
9918;SDS011;4998;51.024;13.828;2024-03-08T13:22:12;11.30;;;10.13;;
9918;SDS011;4998;51.024;13.828;2024-03-08T13:24:41;12.87;;;10.03;;
9918;SDS011;4998;51.024;13.828;2024-03-08T13:27:10;11.10;;;9.20;;
9918;SDS011;4998;51.024;13.828;2024-03-08T13:29:45;10.10;;;8.90;;
9918;SDS011;4998;51.024;13.828;2024-03-08T13:32:14;14.60;;;8.87;;
9918;SDS011;4998;51.024;13.828;2024-03-08T13:34:42;12.53;;;9.27;;
9918;SDS011;4998;51.024;13.828;2024-03-08T13:37:10;13.37;;;8.47;;
9918;SDS011;4998;51.024;13.828;2024-03-08T13:39:37;12.80;;;9.10;;
9918;SDS011;4998;51.024;13.828;2024-03-08T13:42:09;9.13;;;8.20;;
9918;SDS011;4998;51.024;13.828;2024-03-08T13:44:39;9.90;;;8.30;;
9918;SDS011;4998;51.024;13.828;2024-03-08T13:47:11;10.90;;;8.67;;
9918;SDS011;4998;51.024;13.828;2024-03-08T13:49:38;10.57;;;9.00;;
9918;SDS011;4998;51.024;13.828;2024-03-08T13:52:07;10.20;;;8.60;;
9918;SDS011;4998;51.024;13.828;2024-03-08T13:54:34;11.03;;;9.27;;
9918;SDS011;4998;51.024;13.828;2024-03-08T13:57:01;12.20;;;9.33;;
9918;SDS011;4998;51.024;13.828;2024-03-08T13:59:30;12.23;;;8.97;;
9918;SDS011;4998;51.024;13.828;2024-03-08T14:01:58;11.30;;;9.10;;
9918;SDS011;4998;51.024;13.828;2024-03-08T14:04:27;10.43;;;9.20;;
9918;SDS011;4998;51.024;13.828;2024-03-08T14:06:54;11.13;;;8.50;;
9918;SDS011;4998;51.024;13.828;2024-03-08T14:09:28;9.07;;;8.10;;
9918;SDS011;4998;51.024;13.828;2024-03-08T14:11:56;9.80;;;7.63;;
9918;SDS011;4998;51.024;13.828;2024-03-08T14:14:23;10.43;;;8.40;;
9918;SDS011;4998;51.024;13.828;2024-03-08T14:16:50;10.00;;;8.37;;
9918;SDS011;4998;51.024;13.828;2024-03-08T14:19:20;8.83;;;7.70;;
9918;SDS011;4998;51.024;13.828;2024-03-08T14:21:47;11.43;;;8.10;;
9918;SDS011;4998;51.024;13.828;2024-03-08T14:24:16;9.23;;;8.10;;
9918;SDS011;4998;51.024;13.828;2024-03-08T14:26:45;9.00;;;8.00;;
9918;SDS011;4998;51.024;13.828;2024-03-08T14:29:13;9.30;;;7.53;;
9918;SDS011;4998;51.024;13.828;2024-03-08T14:31:41;10.60;;;8.30;;
9918;SDS011;4998;51.024;13.828;2024-03-08T14:34:08;8.73;;;7.83;;
9918;SDS011;4998;51.024;13.828;2024-03-08T14:36:35;8.20;;;6.87;;
9918;SDS011;4998;51.024;13.828;2024-03-08T14:39:03;10.53;;;7.87;;
9918;SDS011;4998;51.024;13.828;2024-03-08T14:41:30;10.23;;;7.70;;